Kesslers Mill, Virginia
Current Conditions -  °F | °C
As of 9:54 AM on Thursday 23 Oct 2014 (Local Time) from KROA Reporting Station
Few Clouds Few Clouds  
Wind Chill: 54°   Ceiling: Unl
Heat Index: 54°   Visibility: 10mi
Dew Point: 38°   Wind: 18mph
Humidity: 55%   Direction: 310°NW
Pressure: 30.09"   Gusts: 24mph
Location:  37.2956°N, 80.1166°W
Report Text: KROA 231354Z 31016G21KT 10SM FEW035 12/03 A3009 RMK AO2 PK WND 30028/1343 SLP187 T01220033
Loading
Personal Weather Stations






























Interactive Weather Map
Tropical Storm Tracking
New forecast layout! Learn more

10-Day Weather Forecast

Advertisements
Track Severe Weather on mobile